createdAt,value
2018-05-08T04:09:23.388Z,1008.31
2018-05-08T04:09:48.900Z,1008.32
2018-05-08T04:10:14.403Z,1008.34
2018-05-08T04:10:39.962Z,1008.3
2018-05-08T04:11:05.432Z,1008.32
2018-05-08T04:11:30.915Z,1008.36
2018-05-08T04:11:56.498Z,1008.33
2018-05-08T04:12:21.923Z,1008.29
2018-05-08T04:12:47.427Z,1008.31
2018-05-08T04:13:12.905Z,1008.34
2018-05-08T04:13:38.428Z,1008.32
2018-05-08T04:14:03.945Z,1008.34
2018-05-08T04:14:29.419Z,1008.35
2018-05-08T04:14:55.160Z,1008.32
2018-05-08T04:15:20.436Z,1008.32
2018-05-08T04:15:45.970Z,1008.28
2018-05-08T04:16:11.707Z,1008.26
2018-05-08T04:16:37.225Z,1008.29
2018-05-08T04:17:02.906Z,1008.28
2018-05-08T04:17:28.383Z,1008.29
2018-05-08T04:17:53.906Z,1008.31
2018-05-08T04:18:19.347Z,1008.3
2018-05-08T04:18:44.892Z,1008.28
2018-05-08T04:19:10.338Z,1008.27
2018-05-08T04:19:35.834Z,1008.3
2018-05-08T04:20:01.268Z,1008.31
2018-05-08T04:20:26.743Z,1008.31
2018-05-08T04:20:52.234Z,1008.31
2018-05-08T04:21:17.789Z,1008.28
2018-05-08T04:21:43.304Z,1008.33
2018-05-08T04:22:57.142Z,1008.26
2018-05-08T04:23:22.642Z,1008.27
2018-05-08T04:23:48.124Z,1008.28
2018-05-08T04:24:13.595Z,1008.28
2018-05-08T04:24:39.110Z,1008.29
2018-05-08T04:25:04.593Z,1008.23
2018-05-08T04:25:30.171Z,1008.24
2018-05-08T04:25:55.675Z,1008.25
2018-05-08T04:26:21.127Z,1008.26
2018-05-08T04:26:46.719Z,1008.26
2018-05-08T04:27:12.127Z,1008.25
2018-05-08T04:27:37.653Z,1008.24
2018-05-08T04:28:03.150Z,1008.22
2018-05-08T04:28:28.653Z,1008.22
2018-05-08T04:28:54.144Z,1008.24
2018-05-08T04:29:19.638Z,1008.23
2018-05-08T04:29:45.129Z,1008.26
2018-05-08T04:30:58.937Z,1008.26
2018-05-08T04:31:24.515Z,1008.22
2018-05-08T04:31:50.090Z,1008.21
2018-05-08T04:32:15.676Z,1008.19
2018-05-08T04:32:41.140Z,1008.2
2018-05-08T04:33:06.675Z,1008.2
2018-05-08T04:33:32.165Z,1008.21
2018-05-08T04:33:57.677Z,1008.19
2018-05-08T04:34:23.310Z,1008.22
2018-05-08T04:34:48.736Z,1008.18
2018-05-08T04:35:14.209Z,1008.2
2018-05-08T04:35:39.729Z,1008.18
2018-05-08T04:36:05.247Z,1008.19
2018-05-08T04:36:30.843Z,1008.22
2018-05-08T04:36:56.259Z,1008.21
2018-05-08T04:37:21.934Z,1008.2
2018-05-08T04:37:47.510Z,1008.18
2018-05-08T04:38:12.983Z,1008.21
2018-05-08T04:38:38.561Z,1008.18
2018-05-08T04:39:37.988Z,1008.14
2018-05-08T04:40:03.480Z,1008.18
2018-05-08T04:40:28.937Z,1008.18
2018-05-08T04:41:38.500Z,1008.21
2018-05-08T04:42:04.475Z,1008.14
2018-05-08T04:42:30.521Z,1008.14
2018-05-08T04:42:56.344Z,1008.11
2018-05-08T04:43:22.296Z,1008.15
2018-05-08T04:43:48.045Z,1008.14
2018-05-08T04:44:14.302Z,1008.15
2018-05-08T04:44:39.831Z,1008.13
2018-05-08T04:45:05.602Z,1008.1
2018-05-08T04:45:31.165Z,1008.12
2018-05-08T04:45:56.879Z,1008.12
2018-05-08T04:46:22.502Z,1008.1
2018-05-08T04:46:48.312Z,1008.1
2018-05-08T04:47:14.006Z,1008.12
2018-05-08T04:47:39.656Z,1008.09
2018-05-08T04:48:05.205Z,1008.14
2018-05-08T04:48:30.789Z,1008.16
2018-05-08T04:48:56.394Z,1008.15
2018-05-08T04:49:22.122Z,1008.09
2018-05-08T04:49:47.693Z,1008.17
2018-05-08T04:50:13.201Z,1008.12
2018-05-08T04:50:38.845Z,1008.13
2018-05-08T04:51:04.349Z,1008.13
2018-05-08T04:51:29.945Z,1008.11
2018-05-08T04:51:56.367Z,1008.13
2018-05-08T04:52:22.342Z,1008.07
2018-05-08T04:52:48.872Z,1008.12
2018-05-08T04:53:14.476Z,1008.11
2018-05-08T04:53:40.120Z,1008.16
2018-05-08T04:54:06.027Z,1008.14
2018-05-08T04:54:31.831Z,1008.19
2018-05-08T04:54:57.806Z,1008.13
2018-05-08T04:55:23.307Z,1008.14
2018-05-08T04:55:48.932Z,1008.12
2018-05-08T04:56:14.364Z,1008.15
2018-05-08T04:56:39.892Z,1008.13
2018-05-08T04:57:05.351Z,1008.15
2018-05-08T04:58:24.344Z,1008.1
2018-05-08T04:58:49.888Z,1008.09
2018-05-08T04:59:15.372Z,1008.12
2018-05-08T04:59:40.861Z,1008.13
2018-05-08T05:00:06.359Z,1008.13
2018-05-08T05:00:31.832Z,1008.11
2018-05-08T05:00:57.340Z,1008.1
2018-05-08T05:01:22.826Z,1008.08
2018-05-08T05:01:48.395Z,1008.09
2018-05-08T05:02:13.883Z,1008.05
2018-05-08T05:02:39.442Z,1008.04
2018-05-08T05:03:04.903Z,1008.03
2018-05-08T05:03:30.456Z,1008.07
2018-05-08T05:03:55.933Z,1008.05
2018-05-08T05:04:21.440Z,1008
2018-05-08T05:04:46.916Z,1008.01
2018-05-08T05:05:12.417Z,1008.02
2018-05-08T05:05:37.947Z,1008.01
2018-05-08T05:06:03.428Z,1008.04
2018-05-08T05:06:28.953Z,1008
2018-05-08T05:06:54.377Z,1008.02
2018-05-08T05:07:19.830Z,1008
2018-05-08T05:08:33.727Z,1007.99
2018-05-08T05:08:59.239Z,1007.97
2018-05-08T05:09:24.697Z,1008
2018-05-08T05:09:50.172Z,1008.01
2018-05-08T05:10:15.641Z,1007.98
2018-05-08T05:10:41.121Z,1007.98
2018-05-08T05:11:06.688Z,1007.97
2018-05-08T05:11:32.140Z,1007.97
2018-05-08T05:11:57.661Z,1007.99
2018-05-08T05:12:23.175Z,1007.99
2018-05-08T05:12:48.667Z,1007.98
2018-05-08T05:13:14.149Z,1007.98
2018-05-08T05:13:39.635Z,1007.98
2018-05-08T05:14:05.137Z,1007.98
2018-05-08T05:14:30.566Z,1007.97
2018-05-08T05:14:56.102Z,1008.01
2018-05-08T05:15:21.622Z,1007.96
2018-05-08T05:15:47.115Z,1007.98
2018-05-08T05:16:12.666Z,1007.99
2018-05-08T05:17:16.399Z,1007.93
2018-05-08T05:17:41.899Z,1007.93
2018-05-08T05:18:07.570Z,1007.96
2018-05-08T05:18:33.069Z,1007.95
2018-05-08T05:18:58.634Z,1007.99
2018-05-08T05:19:24.241Z,1007.96
2018-05-08T05:19:49.694Z,1007.92
2018-05-08T05:20:15.232Z,1007.96
2018-05-08T05:20:40.752Z,1007.95
2018-05-08T05:21:06.350Z,1007.95
2018-05-08T05:21:31.894Z,1007.94
2018-05-08T05:21:57.349Z,1007.93
2018-05-08T05:22:22.856Z,1007.96
2018-05-08T05:22:48.330Z,1007.93
2018-05-08T05:23:13.799Z,1007.91
2018-05-08T05:23:39.319Z,1007.9
2018-05-08T05:24:04.787Z,1007.94
2018-05-08T05:24:30.332Z,1007.93
2018-05-08T05:24:55.786Z,1007.92
2018-05-08T05:25:21.232Z,1007.9
2018-05-08T05:25:46.700Z,1007.98
2018-05-08T05:26:12.207Z,1007.94
2018-05-08T05:26:37.751Z,1007.92
2018-05-08T05:27:03.319Z,1007.9
2018-05-08T05:27:28.802Z,1007.89
2018-05-08T05:27:54.373Z,1007.93
2018-05-08T05:28:19.892Z,1007.92
2018-05-08T05:28:45.340Z,1007.92
2018-05-08T05:29:10.880Z,1007.99
2018-05-08T05:29:36.469Z,1007.93
2018-05-08T05:30:01.887Z,1007.97
2018-05-08T05:30:27.397Z,1007.92
2018-05-08T05:30:52.881Z,1007.89
2018-05-08T05:31:18.462Z,1007.91
2018-05-08T05:31:44.019Z,1007.93
2018-05-08T05:32:09.503Z,1007.95
2018-05-08T05:32:35.055Z,1007.94
2018-05-08T05:33:00.498Z,1007.98
2018-05-08T05:33:25.989Z,1007.96
2018-05-08T05:33:51.488Z,1007.91
2018-05-08T05:34:16.988Z,1007.9
2018-05-08T05:34:42.473Z,1007.96
2018-05-08T05:35:07.990Z,1007.94
2018-05-08T05:35:33.487Z,1007.95
2018-05-08T05:35:58.980Z,1007.94
2018-05-08T05:36:24.460Z,1007.91
2018-05-08T05:36:49.946Z,1007.92
2018-05-08T05:37:15.451Z,1007.91
2018-05-08T05:37:40.948Z,1007.9
2018-05-08T05:38:06.492Z,1007.89
2018-05-08T05:38:31.991Z,1007.93
2018-05-08T05:38:57.508Z,1007.92
2018-05-08T05:39:23.012Z,1007.92
2018-05-08T05:39:48.521Z,1007.89
2018-05-08T05:40:14.017Z,1007.92
2018-05-08T05:40:39.504Z,1007.87
2018-05-08T05:41:04.997Z,1007.89
2018-05-08T05:41:30.482Z,1007.89
2018-05-08T05:41:55.982Z,1007.87
2018-05-08T05:42:21.505Z,1007.92
2018-05-08T05:42:46.983Z,1007.85
2018-05-08T05:43:12.481Z,1007.92
2018-05-08T05:43:37.983Z,1007.9
2018-05-08T05:44:03.476Z,1007.85
2018-05-08T05:44:28.983Z,1007.84
2018-05-08T05:44:54.456Z,1007.82
2018-05-08T05:45:20.023Z,1007.84
2018-05-08T05:46:18.125Z,1007.86
2018-05-08T05:46:43.544Z,1007.85
2018-05-08T05:47:09.023Z,1007.86
2018-05-08T05:47:34.532Z,1007.82
2018-05-08T05:48:00.042Z,1007.85
2018-05-08T05:48:25.563Z,1007.84
2018-05-08T05:48:51.073Z,1007.85
2018-05-08T05:49:16.580Z,1007.85
2018-05-08T05:49:42.064Z,1007.86
2018-05-08T05:50:07.571Z,1007.84
2018-05-08T05:50:33.058Z,1007.85
2018-05-08T05:50:58.556Z,1007.89
2018-05-08T05:51:24.051Z,1007.83
2018-05-08T05:51:49.724Z,1007.86
2018-05-08T05:52:15.226Z,1007.88
2018-05-08T05:52:40.748Z,1007.86
2018-05-08T05:53:06.221Z,1007.82
2018-05-08T05:53:31.732Z,1007.85
2018-05-08T05:53:57.230Z,1007.83
2018-05-08T05:54:22.721Z,1007.82
2018-05-08T05:54:48.221Z,1007.83
2018-05-08T05:55:13.693Z,1007.82
2018-05-08T05:55:39.202Z,1007.87
2018-05-08T05:56:42.850Z,1007.89
2018-05-08T05:57:08.382Z,1007.86
2018-05-08T05:57:33.850Z,1007.86
2018-05-08T05:57:59.323Z,1007.87
2018-05-08T05:58:24.800Z,1007.85
2018-05-08T05:58:50.328Z,1007.83
2018-05-08T05:59:15.878Z,1007.87
2018-05-08T05:59:41.341Z,1007.87
2018-05-08T06:00:06.908Z,1007.9
2018-05-08T06:00:32.355Z,1007.88
2018-05-08T06:00:57.835Z,1007.88
2018-05-08T06:01:23.354Z,1007.86
2018-05-08T06:01:48.851Z,1007.89
2018-05-08T06:02:14.327Z,1007.84
2018-05-08T06:02:39.798Z,1007.86
2018-05-08T06:03:05.270Z,1007.87
2018-05-08T06:03:30.772Z,1007.83
2018-05-08T06:03:56.243Z,1007.82
2018-05-08T06:04:21.743Z,1007.82
2018-05-08T06:04:47.234Z,1007.86
2018-05-08T06:05:12.752Z,1007.75
2018-05-08T06:05:38.252Z,1007.77
2018-05-08T06:06:03.796Z,1007.83
2018-05-08T06:06:29.359Z,1007.8
2018-05-08T06:06:54.764Z,1007.77
2018-05-08T06:07:20.248Z,1007.8
2018-05-08T06:07:45.735Z,1007.78
2018-05-08T06:08:11.233Z,1007.71
2018-05-08T06:08:36.733Z,1007.73
2018-05-08T06:09:02.228Z,1007.72
2018-05-08T06:09:27.768Z,1007.72
2018-05-08T06:09:53.265Z,1007.7
2018-05-08T06:10:18.670Z,1007.72
2018-05-08T06:10:44.215Z,1007.74
2018-05-08T06:11:09.848Z,1007.74
2018-05-08T06:11:35.482Z,1007.74
2018-05-08T06:12:01.114Z,1007.71
2018-05-08T06:12:26.538Z,1007.69
2018-05-08T06:12:52.006Z,1007.71
2018-05-08T06:13:17.567Z,1007.68
2018-05-08T06:13:43.064Z,1007.7
2018-05-08T06:14:08.547Z,1007.71
2018-05-08T06:14:34.080Z,1007.7
2018-05-08T06:14:59.655Z,1007.65
2018-05-08T06:15:25.119Z,1007.69
2018-05-08T06:15:50.712Z,1007.7
2018-05-08T06:16:16.310Z,1007.71
2018-05-08T06:16:41.855Z,1007.69
2018-05-08T06:17:07.448Z,1007.72
2018-05-08T06:17:33.138Z,1007.71
2018-05-08T06:17:58.856Z,1007.73
2018-05-08T06:18:24.346Z,1007.72
2018-05-08T06:18:49.932Z,1007.73
2018-05-08T06:19:15.493Z,1007.68
2018-05-08T06:19:41.030Z,1007.69
2018-05-08T06:20:06.616Z,1007.73
2018-05-08T06:20:32.217Z,1007.73
2018-05-08T06:20:57.960Z,1007.73
2018-05-08T06:21:23.645Z,1007.68
2018-05-08T06:21:49.333Z,1007.69
2018-05-08T06:22:15.094Z,1007.74
2018-05-08T06:22:40.808Z,1007.74
2018-05-08T06:23:06.501Z,1007.74
2018-05-08T06:23:32.174Z,1007.78
2018-05-08T06:23:57.860Z,1007.72
2018-05-08T06:24:23.729Z,1007.7
2018-05-08T06:24:49.400Z,1007.72
2018-05-08T06:25:15.139Z,1007.7
2018-05-08T06:25:40.920Z,1007.74
2018-05-08T06:26:06.666Z,1007.68
2018-05-08T06:26:32.358Z,1007.68
2018-05-08T06:26:57.965Z,1007.7
2018-05-08T06:27:23.867Z,1007.69
2018-05-08T06:27:49.622Z,1007.68
2018-05-08T06:28:15.307Z,1007.7
2018-05-08T06:28:41.004Z,1007.72
2018-05-08T06:29:06.782Z,1007.69
2018-05-08T06:29:32.398Z,1007.67
2018-05-08T06:29:58.211Z,1007.67
2018-05-08T06:30:24.242Z,1007.74
2018-05-08T06:31:23.135Z,1007.7
2018-05-08T06:31:48.933Z,1007.67
2018-05-08T06:32:14.637Z,1007.69
2018-05-08T06:32:40.375Z,1007.67
2018-05-08T06:33:06.029Z,1007.68
2018-05-08T06:33:31.713Z,1007.71
2018-05-08T06:33:57.282Z,1007.7
2018-05-08T06:34:22.874Z,1007.68
2018-05-08T06:34:48.436Z,1007.65
2018-05-08T06:35:14.026Z,1007.66
2018-05-08T06:35:39.806Z,1007.63
2018-05-08T06:36:05.387Z,1007.65
2018-05-08T06:36:31.036Z,1007.67
2018-05-08T06:36:56.758Z,1007.66
2018-05-08T06:37:22.386Z,1007.69
2018-05-08T06:37:47.990Z,1007.67
2018-05-08T06:38:13.605Z,1007.63
2018-05-08T06:38:39.225Z,1007.64
2018-05-08T06:39:04.847Z,1007.66
2018-05-08T06:39:30.517Z,1007.67
2018-05-08T06:39:56.050Z,1007.64
2018-05-08T06:40:21.674Z,1007.67
2018-05-08T06:40:47.306Z,1007.64
2018-05-08T06:41:12.980Z,1007.62
2018-05-08T06:41:38.600Z,1007.59
2018-05-08T06:42:04.148Z,1007.66
2018-05-08T06:42:29.755Z,1007.65
2018-05-08T06:42:55.312Z,1007.62
2018-05-08T06:43:21.062Z,1007.65
2018-05-08T06:43:46.779Z,1007.67
2018-05-08T06:44:12.427Z,1007.6
2018-05-08T06:44:38.095Z,1007.61
2018-05-08T06:45:03.690Z,1007.62
2018-05-08T06:45:29.479Z,1007.61
2018-05-08T06:45:55.254Z,1007.61
2018-05-08T06:46:20.853Z,1007.63
2018-05-08T06:46:46.489Z,1007.61
2018-05-08T06:47:12.127Z,1007.63
2018-05-08T06:47:37.697Z,1007.59
2018-05-08T06:48:03.245Z,1007.63
2018-05-08T06:48:28.865Z,1007.64
2018-05-08T06:48:54.589Z,1007.63
2018-05-08T06:49:20.442Z,1007.64
2018-05-08T06:49:46.052Z,1007.58
2018-05-08T06:50:11.799Z,1007.62
2018-05-08T06:50:37.418Z,1007.62
2018-05-08T06:51:03.056Z,1007.59
2018-05-08T06:51:28.757Z,1007.6
2018-05-08T06:51:54.363Z,1007.58
2018-05-08T06:52:20.134Z,1007.59
2018-05-08T06:52:45.775Z,1007.58
2018-05-08T06:53:11.468Z,1007.58
2018-05-08T06:53:37.190Z,1007.59
2018-05-08T06:54:02.929Z,1007.57
2018-05-08T06:54:28.638Z,1007.54
2018-05-08T06:54:54.300Z,1007.56
2018-05-08T06:55:19.885Z,1007.58
2018-05-08T06:55:45.515Z,1007.54
2018-05-08T06:56:11.155Z,1007.58
2018-05-08T06:56:36.791Z,1007.61
2018-05-08T06:57:02.382Z,1007.56
2018-05-08T06:57:28.012Z,1007.58
2018-05-08T06:57:53.751Z,1007.59
2018-05-08T06:58:19.261Z,1007.57
2018-05-08T06:58:44.857Z,1007.61
2018-05-08T06:59:10.600Z,1007.6
2018-05-08T06:59:36.255Z,1007.58
2018-05-08T07:00:01.970Z,1007.59
2018-05-08T07:00:27.500Z,1007.62
2018-05-08T07:00:53.116Z,1007.61
2018-05-08T07:01:18.629Z,1007.65
2018-05-08T07:01:44.231Z,1007.59
2018-05-08T07:02:09.724Z,1007.62
2018-05-08T07:02:35.261Z,1007.6
2018-05-08T07:03:00.960Z,1007.63
2018-05-08T07:03:26.588Z,1007.62
2018-05-08T07:03:52.186Z,1007.66
2018-05-08T07:04:17.709Z,1007.64
2018-05-08T07:04:43.231Z,1007.63
2018-05-08T07:05:08.816Z,1007.66
2018-05-08T07:05:34.438Z,1007.64
2018-05-08T07:05:59.969Z,1007.64
2018-05-08T07:06:25.719Z,1007.66
2018-05-08T07:06:51.377Z,1007.62
2018-05-08T07:07:16.991Z,1007.63
2018-05-08T07:07:42.553Z,1007.62
2018-05-08T07:08:08.187Z,1007.66
2018-05-08T07:08:33.646Z,1007.68
2018-05-08T07:08:59.241Z,1007.58
2018-05-08T07:09:24.872Z,1007.64
2018-05-08T07:09:50.476Z,1007.59
2018-05-08T07:10:16.088Z,1007.6
2018-05-08T07:10:41.648Z,1007.6
2018-05-08T07:11:07.257Z,1007.61
2018-05-08T07:11:32.814Z,1007.61
2018-05-08T07:11:58.412Z,1007.59
2018-05-08T07:12:24.041Z,1007.6
2018-05-08T07:12:49.653Z,1007.58
2018-05-08T07:13:15.354Z,1007.58
2018-05-08T07:13:41.030Z,1007.6
2018-05-08T07:14:06.655Z,1007.54
2018-05-08T07:14:32.157Z,1007.59
2018-05-08T07:14:57.717Z,1007.57
2018-05-08T07:15:23.462Z,1007.57
2018-05-08T07:15:49.182Z,1007.56
2018-05-08T07:16:14.994Z,1007.56
2018-05-08T07:16:40.211Z,1007.59
2018-05-08T07:17:05.802Z,1007.59
2018-05-08T07:17:31.403Z,1007.57
2018-05-08T07:17:56.942Z,1007.6
2018-05-08T07:18:22.551Z,1007.61
2018-05-08T07:18:48.133Z,1007.61
2018-05-08T07:19:13.952Z,1007.56
2018-05-08T07:19:39.497Z,1007.6
2018-05-08T07:20:05.154Z,1007.58
2018-05-08T07:20:30.677Z,1007.56
2018-05-08T07:20:56.255Z,1007.55
2018-05-08T07:21:21.889Z,1007.61
2018-05-08T07:21:47.506Z,1007.57
2018-05-08T07:22:13.177Z,1007.56
2018-05-08T07:22:38.843Z,1007.59
2018-05-08T07:23:04.458Z,1007.63
2018-05-08T07:23:30.052Z,1007.53
2018-05-08T07:23:55.708Z,1007.55
2018-05-08T07:24:21.260Z,1007.58
2018-05-08T07:24:46.898Z,1007.55
2018-05-08T07:25:12.436Z,1007.56
2018-05-08T07:25:38.060Z,1007.6
2018-05-08T07:26:03.651Z,1007.57
2018-05-08T07:26:29.176Z,1007.58
2018-05-08T07:26:54.732Z,1007.59
2018-05-08T07:27:20.337Z,1007.56
2018-05-08T07:27:45.922Z,1007.6
2018-05-08T07:28:11.529Z,1007.57
2018-05-08T07:28:37.069Z,1007.56
2018-05-08T07:29:02.653Z,1007.55
2018-05-08T07:29:28.290Z,1007.59
2018-05-08T07:29:53.874Z,1007.62
2018-05-08T07:30:19.475Z,1007.61
2018-05-08T07:30:45.046Z,1007.6
2018-05-08T07:31:10.572Z,1007.59
2018-05-08T07:31:36.105Z,1007.6
2018-05-08T07:32:01.731Z,1007.6
2018-05-08T07:32:27.306Z,1007.64
2018-05-08T07:32:52.823Z,1007.61
2018-05-08T07:33:18.460Z,1007.63
2018-05-08T07:33:43.926Z,1007.65
2018-05-08T07:34:09.554Z,1007.65
2018-05-08T07:34:35.107Z,1007.69
2018-05-08T07:35:00.705Z,1007.64
2018-05-08T07:35:26.255Z,1007.6
2018-05-08T07:35:51.807Z,1007.61
2018-05-08T07:36:17.340Z,1007.62
2018-05-08T07:36:42.948Z,1007.64
2018-05-08T07:37:08.500Z,1007.62
2018-05-08T07:37:34.094Z,1007.66
2018-05-08T07:37:59.612Z,1007.67
2018-05-08T07:38:25.117Z,1007.64
2018-05-08T07:38:50.705Z,1007.63
2018-05-08T07:39:16.377Z,1007.64
2018-05-08T07:39:42.029Z,1007.7
2018-05-08T07:40:07.720Z,1007.68
2018-05-08T07:40:33.394Z,1007.64
2018-05-08T07:40:58.901Z,1007.65
2018-05-08T07:41:24.435Z,1007.62
2018-05-08T07:41:50.064Z,1007.66
2018-05-08T07:43:03.934Z,1007.68
2018-05-08T07:43:29.518Z,1007.66
2018-05-08T07:43:55.132Z,1007.62
2018-05-08T07:44:21.084Z,1007.65
2018-05-08T07:44:46.696Z,1007.68
2018-05-08T07:45:12.593Z,1007.68
2018-05-08T07:45:38.515Z,1007.66
2018-05-08T07:46:04.062Z,1007.63
2018-05-08T07:46:29.678Z,1007.75
2018-05-08T07:46:55.198Z,1007.62
2018-05-08T07:47:20.842Z,1007.6
2018-05-08T07:47:46.467Z,1007.61
2018-05-08T07:48:12.084Z,1007.69
2018-05-08T07:48:37.629Z,1007.63
2018-05-08T07:49:03.146Z,1007.63
2018-05-08T07:49:28.702Z,1007.64
2018-05-08T07:49:54.280Z,1007.61
2018-05-08T07:50:19.924Z,1007.61
2018-05-08T07:50:45.527Z,1007.61
2018-05-08T07:51:11.086Z,1007.63
2018-05-08T07:51:36.674Z,1007.65
2018-05-08T07:52:02.238Z,1007.7
2018-05-08T07:52:27.905Z,1007.75
2018-05-08T07:52:53.421Z,1007.66
2018-05-08T07:53:19.045Z,1007.69
2018-05-08T07:54:17.769Z,1007.65
2018-05-08T07:54:43.241Z,1007.65
2018-05-08T07:55:08.769Z,1007.64
2018-05-08T07:55:34.368Z,1007.66
2018-05-08T07:55:59.875Z,1007.63
2018-05-08T07:56:25.642Z,1007.66
2018-05-08T07:56:51.100Z,1007.68
2018-05-08T07:57:16.693Z,1007.63
2018-05-08T07:57:42.420Z,1007.67
2018-05-08T07:58:08.014Z,1007.69
2018-05-08T07:58:33.568Z,1007.68
2018-05-08T07:58:59.099Z,1007.62
2018-05-08T07:59:24.725Z,1007.62
2018-05-08T07:59:50.357Z,1007.67
2018-05-08T08:00:15.889Z,1007.65
2018-05-08T08:00:41.457Z,1007.62
2018-05-08T08:01:07.092Z,1007.6
2018-05-08T08:01:32.631Z,1007.59
2018-05-08T08:01:58.203Z,1007.59
2018-05-08T08:02:23.773Z,1007.6
2018-05-08T08:02:49.336Z,1007.6
2018-05-08T08:03:15.081Z,1007.62
2018-05-08T08:03:40.611Z,1007.61
2018-05-08T08:04:06.195Z,1007.6
2018-05-08T08:04:31.796Z,1007.59
2018-05-08T08:04:57.313Z,1007.59
2018-05-08T08:05:22.892Z,1007.6
2018-05-08T08:05:48.447Z,1007.61
2018-05-08T08:06:13.990Z,1007.61
2018-05-08T08:06:39.501Z,1007.59
2018-05-08T08:07:05.052Z,1007.61
2018-05-08T08:07:30.801Z,1007.64
2018-05-08T08:07:56.157Z,1007.62
2018-05-08T08:08:21.669Z,1007.67
2018-05-08T08:08:47.246Z,1007.66
2018-05-08T08:09:12.919Z,1007.58
2018-05-08T08:09:38.407Z,1007.62
2018-05-08T08:10:04.112Z,1007.58
2018-05-08T08:10:29.694Z,1007.66
2018-05-08T08:10:55.309Z,1007.58
2018-05-08T08:11:20.913Z,1007.64
2018-05-08T08:11:46.482Z,1007.6
2018-05-08T08:12:12.055Z,1007.67
2018-05-08T08:12:37.573Z,1007.61
2018-05-08T08:13:03.072Z,1007.63
2018-05-08T08:13:28.641Z,1007.65
2018-05-08T08:13:54.203Z,1007.65
2018-05-08T08:14:19.779Z,1007.62
2018-05-08T08:14:45.388Z,1007.64
2018-05-08T08:15:59.237Z,1007.62
2018-05-08T08:16:24.708Z,1007.67
2018-05-08T08:16:50.232Z,1007.64
2018-05-08T08:17:15.798Z,1007.64
2018-05-08T08:17:41.453Z,1007.64
2018-05-08T08:18:07.141Z,1007.52
2018-05-08T08:18:32.983Z,1007.52
2018-05-08T08:18:58.480Z,1007.62
2018-05-08T08:19:24.035Z,1007.54
2018-05-08T08:19:49.590Z,1007.62
2018-05-08T08:20:15.167Z,1007.5
2018-05-08T08:20:40.715Z,1007.5
2018-05-08T08:21:06.290Z,1007.48
2018-05-08T08:21:31.848Z,1007.51
2018-05-08T08:21:57.402Z,1007.49
2018-05-08T08:22:22.909Z,1007.52
2018-05-08T08:22:48.482Z,1007.5
2018-05-08T08:23:14.000Z,1007.47
2018-05-08T08:23:39.567Z,1007.49
2018-05-08T08:24:05.111Z,1007.49
2018-05-08T08:24:30.631Z,1007.44
2018-05-08T08:24:56.233Z,1007.45
2018-05-08T08:25:21.890Z,1007.42
2018-05-08T08:25:47.362Z,1007.45
2018-05-08T08:26:12.932Z,1007.45
2018-05-08T08:26:38.541Z,1007.46
2018-05-08T08:27:04.078Z,1007.46
2018-05-08T08:27:29.715Z,1007.42
2018-05-08T08:27:55.227Z,1007.38
2018-05-08T08:28:20.864Z,1007.41
2018-05-08T08:28:46.386Z,1007.42
2018-05-08T08:29:11.966Z,1007.42
2018-05-08T08:29:37.530Z,1007.41
2018-05-08T08:30:02.984Z,1007.44
2018-05-08T08:30:28.583Z,1007.37
2018-05-08T08:30:54.174Z,1007.38
2018-05-08T08:31:19.809Z,1007.36
2018-05-08T08:31:45.403Z,1007.35
2018-05-08T08:32:11.005Z,1007.35
2018-05-08T08:33:30.682Z,1007.36
2018-05-08T08:33:56.162Z,1007.33
2018-05-08T08:34:22.078Z,1007.35
2018-05-08T08:34:47.834Z,1007.34
2018-05-08T08:35:13.435Z,1007.36
2018-05-08T08:35:39.021Z,1007.35
2018-05-08T08:36:04.472Z,1007.4
2018-05-08T08:36:30.015Z,1007.32
2018-05-08T08:36:55.579Z,1007.32
2018-05-08T08:37:21.138Z,1007.34
2018-05-08T08:37:46.632Z,1007.28
2018-05-08T08:38:12.130Z,1007.29
2018-05-08T08:38:37.719Z,1007.3
2018-05-08T08:39:03.252Z,1007.28
2018-05-08T08:39:28.803Z,1007.3
2018-05-08T08:39:54.442Z,1007.27
2018-05-08T08:40:19.954Z,1007.32
2018-05-08T08:40:45.488Z,1007.35
2018-05-08T08:41:11.036Z,1007.28
2018-05-08T08:41:36.632Z,1007.26
2018-05-08T08:42:02.360Z,1007.27
2018-05-08T08:42:27.858Z,1007.25
2018-05-08T08:42:53.421Z,1007.25
2018-05-08T08:43:18.999Z,1007.24
2018-05-08T08:43:44.661Z,1007.23
2018-05-08T08:44:10.251Z,1007.25
2018-05-08T08:44:35.825Z,1007.28
2018-05-08T08:45:01.407Z,1007.25
2018-05-08T08:45:26.877Z,1007.21
2018-05-08T08:45:52.426Z,1007.24
2018-05-08T08:46:18.037Z,1007.29
2018-05-08T08:46:43.643Z,1007.26
2018-05-08T08:47:09.260Z,1007.3
2018-05-08T08:47:34.833Z,1007.28
2018-05-08T08:48:00.317Z,1007.26
2018-05-08T08:48:25.919Z,1007.18
2018-05-08T08:48:51.575Z,1007.25
2018-05-08T08:49:17.166Z,1007.26
2018-05-08T08:49:42.717Z,1007.19
2018-05-08T08:50:08.328Z,1007.24
2018-05-08T08:50:33.923Z,1007.19
2018-05-08T08:50:59.480Z,1007.18
2018-05-08T08:51:25.076Z,1007.19
2018-05-08T08:51:50.571Z,1007.21
2018-05-08T08:52:16.165Z,1007.21
2018-05-08T08:52:41.688Z,1007.24
2018-05-08T08:53:07.237Z,1007.22
2018-05-08T08:53:32.761Z,1007.21
2018-05-08T08:53:58.297Z,1007.22
2018-05-08T08:54:23.850Z,1007.22
2018-05-08T08:54:49.454Z,1007.22
2018-05-08T08:55:15.014Z,1007.23
2018-05-08T08:55:40.517Z,1007.21
2018-05-08T08:56:06.096Z,1007.26
2018-05-08T08:56:31.623Z,1007.23
2018-05-08T08:56:57.120Z,1007.23
2018-05-08T08:57:22.654Z,1007.22
2018-05-08T08:57:48.190Z,1007.17
2018-05-08T08:58:13.723Z,1007.18
2018-05-08T08:58:39.286Z,1007.15
2018-05-08T08:59:04.851Z,1007.18
2018-05-08T08:59:30.361Z,1007.21
2018-05-08T08:59:55.879Z,1007.18
2018-05-08T09:00:21.416Z,1007.18
2018-05-08T09:00:47.047Z,1007.23
2018-05-08T09:01:12.537Z,1007.18
2018-05-08T09:01:38.122Z,1007.19
2018-05-08T09:02:03.726Z,1007.15
2018-05-08T09:02:29.224Z,1007.15
2018-05-08T09:02:54.901Z,1007.14
2018-05-08T09:03:20.442Z,1007.1
2018-05-08T09:03:46.091Z,1007.11
2018-05-08T09:04:11.565Z,1007.15
2018-05-08T09:04:37.185Z,1007.17
2018-05-08T09:05:02.790Z,1007.13
2018-05-08T09:05:28.484Z,1007.1
2018-05-08T09:05:53.925Z,1007.1
2018-05-08T09:06:19.501Z,1007.15
2018-05-08T09:06:45.048Z,1007.15
2018-05-08T09:07:10.562Z,1007.14
2018-05-08T09:07:36.170Z,1007.15
2018-05-08T09:08:01.713Z,1007.15
2018-05-08T09:08:27.369Z,1007.1
2018-05-08T09:08:52.972Z,1007.05
2018-05-08T09:09:18.586Z,1007.06
2018-05-08T09:09:44.268Z,1007.1
2018-05-08T09:10:09.944Z,1007.05
2018-05-08T09:10:35.570Z,1007.09
2018-05-08T09:11:01.152Z,1007.05
2018-05-08T09:11:26.731Z,1007.06
2018-05-08T09:11:52.221Z,1007.07
2018-05-08T09:12:17.794Z,1007.07
2018-05-08T09:12:43.389Z,1007.01
2018-05-08T09:13:09.046Z,1007.03
2018-05-08T09:13:34.542Z,1006.99
2018-05-08T09:14:00.067Z,1007.02
2018-05-08T09:14:25.681Z,1007.04
2018-05-08T09:14:51.270Z,1006.99
2018-05-08T09:15:16.861Z,1006.98
2018-05-08T09:15:42.449Z,1006.96
2018-05-08T09:16:08.163Z,1007.01
2018-05-08T09:16:33.741Z,1006.97
2018-05-08T09:16:59.269Z,1006.97
2018-05-08T09:17:24.822Z,1006.99
2018-05-08T09:17:50.382Z,1007
2018-05-08T09:18:15.909Z,1007.01
2018-05-08T09:18:41.459Z,1006.97
2018-05-08T09:19:06.988Z,1006.99
2018-05-08T09:19:32.609Z,1007
2018-05-08T09:19:58.213Z,1006.94
2018-05-08T09:20:23.816Z,1006.94
2018-05-08T09:20:49.287Z,1006.95
2018-05-08T09:21:14.887Z,1006.98
2018-05-08T09:21:40.655Z,1006.95
2018-05-08T09:22:06.204Z,1006.94
2018-05-08T09:22:31.830Z,1006.99
2018-05-08T09:22:57.517Z,1006.93
2018-05-08T09:23:23.058Z,1006.92
2018-05-08T09:23:48.687Z,1006.9
2018-05-08T09:24:14.277Z,1006.91
2018-05-08T09:24:39.817Z,1006.87
2018-05-08T09:25:05.416Z,1006.91
2018-05-08T09:25:31.108Z,1006.96
2018-05-08T09:25:56.680Z,1006.84
2018-05-08T09:26:22.178Z,1006.88
2018-05-08T09:26:47.804Z,1006.91
2018-05-08T09:27:13.395Z,1006.85
2018-05-08T09:27:39.140Z,1006.84
2018-05-08T09:28:04.615Z,1006.9
2018-05-08T09:28:30.688Z,1006.82
2018-05-08T09:28:56.997Z,1006.77
2018-05-08T09:29:22.268Z,1006.82
2018-05-08T09:29:48.247Z,1006.76